createdAt,value
2016-10-11T00:00:56.774Z,99.99
2016-10-11T00:01:56.856Z,99.99
2016-10-11T00:02:56.796Z,99.99
2016-10-11T00:03:56.824Z,99.99
2016-10-11T00:04:56.848Z,99.99
2016-10-11T00:05:56.863Z,99.99
2016-10-11T00:06:56.880Z,99.99
2016-10-11T00:07:56.597Z,99.99
2016-10-11T00:08:56.927Z,99.99
2016-10-11T00:09:56.633Z,99.99
2016-10-11T00:10:57.067Z,99.99
2016-10-11T00:11:56.976Z,99.99
2016-10-11T00:12:57.007Z,99.99
2016-10-11T00:13:57.019Z,99.99
2016-10-11T00:14:57.094Z,99.99
2016-10-11T00:15:57.052Z,99.99
2016-10-11T00:16:57.068Z,99.99
2016-10-11T00:17:57.080Z,99.99
2016-10-11T00:18:57.107Z,99.99
2016-10-11T00:19:57.124Z,99.99
2016-10-11T00:20:57.141Z,99.99
2016-10-11T00:21:56.854Z,99.99
2016-10-11T00:22:57.207Z,99.99
2016-10-11T00:23:57.207Z,99.99
2016-10-11T00:24:57.219Z,99.99
2016-10-11T00:25:57.235Z,99.99
2016-10-11T00:26:57.257Z,99.99
2016-10-11T00:27:57.276Z,99.99
2016-10-11T00:28:57.296Z,99.99
2016-10-11T00:29:57.311Z,99.99
2016-10-11T00:30:57.348Z,99.99
2016-10-11T00:31:57.358Z,99.99
2016-10-11T00:32:57.367Z,99.99
2016-10-11T00:33:57.385Z,99.99
2016-10-11T00:34:57.404Z,99.99
2016-10-11T00:35:57.424Z,99.99
2016-10-11T00:36:57.446Z,99.99
2016-10-11T00:37:57.472Z,99.99
2016-10-11T00:38:57.488Z,99.99
2016-10-11T00:39:57.497Z,99.99
2016-10-11T00:40:57.516Z,99.99
2016-10-11T00:41:57.548Z,99.99
2016-10-11T00:42:57.555Z,99.99
2016-10-11T00:43:57.577Z,99.99
2016-10-11T00:44:57.296Z,99.99
2016-10-11T00:45:57.613Z,99.99
2016-10-11T00:46:57.628Z,99.99
2016-10-11T00:47:57.645Z,99.99
2016-10-11T00:48:57.667Z,99.99
2016-10-11T00:49:57.689Z,99.99
2016-10-11T00:50:57.443Z,99.99
2016-10-11T00:51:57.730Z,99.99
2016-10-11T00:52:57.749Z,99.99
2016-10-11T00:53:57.770Z,99.99
2016-10-11T00:54:57.475Z,99.99
2016-10-11T00:55:57.791Z,99.99
2016-10-11T00:56:57.814Z,99.99
2016-10-11T00:57:57.827Z,99.99
2016-10-11T00:58:57.861Z,99.99
2016-10-11T00:59:57.871Z,99.99
2016-10-11T01:00:57.888Z,99.99
2016-10-11T01:01:57.907Z,99.99
2016-10-11T01:02:57.930Z,99.99
2016-10-11T01:03:57.980Z,99.99
2016-10-11T01:04:57.968Z,99.99
2016-10-11T01:05:57.677Z,99.99
2016-10-11T01:06:58.011Z,99.99
2016-10-11T01:07:58.029Z,99.99
2016-10-11T01:08:58.042Z,99.99
2016-10-11T01:09:58.092Z,99.99
2016-10-11T01:10:58.077Z,99.99
2016-10-11T01:11:58.099Z,99.99
2016-10-11T01:12:58.128Z,99.99
2016-10-11T01:13:58.138Z,99.99
2016-10-11T01:14:58.172Z,99.99
2016-10-11T01:15:58.279Z,99.99
2016-10-11T01:16:58.199Z,99.99
2016-10-11T01:17:58.218Z,99.99
2016-10-11T01:18:57.930Z,99.99
2016-10-11T01:19:58.250Z,99.99
2016-10-11T01:20:57.959Z,99.99
2016-10-11T01:21:58.289Z,99.99
2016-10-11T01:22:58.308Z,99.99
2016-10-11T01:23:58.330Z,99.99
2016-10-11T01:24:58.350Z,99.99
2016-10-11T01:25:58.359Z,99.99
2016-10-11T01:26:58.384Z,99.99
2016-10-11T01:27:58.400Z,99.99
2016-10-11T01:28:58.529Z,99.99
2016-10-11T01:29:58.439Z,99.99
2016-10-11T01:30:58.465Z,99.99
2016-10-11T01:31:58.542Z,99.99
2016-10-11T01:32:58.190Z,99.99
2016-10-11T01:33:58.539Z,99.99
2016-10-11T01:34:58.529Z,99.99
2016-10-11T01:35:58.238Z,99.99
2016-10-11T01:36:58.564Z,99.99
2016-10-11T01:37:58.590Z,99.99
2016-10-11T01:38:58.602Z,99.99
2016-10-11T01:39:58.619Z,99.99
2016-10-11T01:40:58.648Z,99.99
2016-10-11T01:41:58.819Z,99.99
2016-10-11T01:42:58.673Z,99.99
2016-10-11T01:43:58.718Z,99.99
2016-10-11T01:44:58.721Z,99.99
2016-10-11T01:45:58.789Z,99.99
2016-10-11T01:46:58.753Z,99.99
2016-10-11T01:47:58.779Z,99.99
2016-10-11T01:48:58.788Z,99.99
2016-10-11T01:49:58.805Z,99.99
2016-10-11T01:50:58.830Z,99.99
2016-10-11T01:51:58.872Z,99.99
2016-10-11T01:52:58.881Z,99.99
2016-10-11T01:53:58.886Z,99.99
2016-10-11T01:54:58.920Z,99.99
2016-10-11T01:55:58.930Z,99.99
2016-10-11T01:56:58.952Z,99.99
2016-10-11T01:57:58.957Z,99.99
2016-10-11T01:58:59.029Z,99.99
2016-10-11T01:59:59.010Z,99.99
2016-10-11T02:00:59.016Z,99.99
2016-10-11T02:01:59.042Z,99.99
2016-10-11T02:02:59.061Z,99.99
2016-10-11T02:03:59.081Z,99.99
2016-10-11T02:04:59.100Z,99.99
2016-10-11T02:05:59.116Z,99.99
2016-10-11T02:06:59.138Z,99.99
2016-10-11T02:07:59.170Z,99.99
2016-10-11T02:08:59.175Z,99.99
2016-10-11T02:09:59.291Z,99.99
2016-10-11T02:10:59.212Z,99.99
2016-10-11T02:11:59.231Z,99.99
2016-10-11T02:12:59.263Z,99.99
2016-10-11T02:13:59.273Z,99.99
2016-10-11T02:14:59.292Z,99.99
2016-10-11T02:15:59.298Z,99.99
2016-10-11T02:16:59.321Z,99.99
2016-10-11T02:17:59.348Z,99.99
2016-10-11T02:18:59.359Z,99.99
2016-10-11T02:19:59.071Z,99.99
2016-10-11T02:20:59.394Z,99.99
2016-10-11T02:21:59.423Z,99.99
2016-10-11T02:22:59.439Z,99.99
2016-10-11T02:23:59.462Z,99.99
2016-10-11T02:24:59.479Z,99.99
2016-10-11T02:25:59.491Z,99.99
2016-10-11T02:26:59.199Z,99.99
2016-10-11T02:27:59.225Z,99.99
2016-10-11T02:28:59.551Z,99.99
2016-10-11T02:29:59.567Z,99.99
2016-10-11T02:30:59.606Z,99.99
2016-10-11T02:31:59.614Z,99.99
2016-10-11T02:32:59.619Z,99.99
2016-10-11T02:33:59.651Z,99.99
2016-10-11T02:34:59.667Z,99.99
2016-10-11T02:35:59.689Z,99.99
2016-10-11T02:36:59.702Z,99.99
2016-10-11T02:37:59.723Z,99.99
2016-10-11T02:38:59.740Z,99.99
2016-10-11T02:39:59.756Z,99.99
2016-10-11T02:40:59.776Z,99.99
2016-10-11T02:41:59.814Z,99.99
2016-10-11T02:42:59.821Z,99.99
2016-10-11T02:43:59.840Z,99.99
2016-10-11T02:44:59.859Z,99.99
2016-10-11T02:45:59.882Z,99.99
2016-10-11T02:46:59.901Z,99.99
2016-10-11T02:47:59.949Z,99.99
2016-10-11T02:48:59.926Z,99.99
2016-10-11T02:49:59.635Z,99.99
2016-10-11T02:50:59.970Z,99.99
2016-10-11T02:52:00.041Z,99.99
2016-10-11T02:53:00.009Z,99.99
2016-10-11T02:54:00.032Z,99.99
2016-10-11T02:55:00.067Z,99.99
2016-10-11T02:56:00.058Z,99.99
2016-10-11T02:57:00.080Z,99.99
2016-10-11T02:58:00.286Z,99.99
2016-10-11T02:59:00.122Z,99.99
2016-10-11T03:00:00.141Z,99.99
2016-10-11T03:01:00.220Z,99.99
2016-10-11T03:02:00.182Z,99.99
2016-10-11T03:03:00.252Z,99.99
2016-10-11T03:04:00.213Z,99.99
2016-10-11T03:05:00.231Z,99.99
2016-10-11T03:06:00.251Z,99.99
2016-10-11T03:07:00.266Z,99.99
2016-10-11T03:08:00.285Z,99.99
2016-10-11T03:09:00.054Z,99.99
2016-10-11T03:10:00.330Z,99.99
2016-10-11T03:11:00.362Z,99.99
2016-10-11T03:12:00.485Z,99.99
2016-10-11T03:13:00.490Z,99.99
2016-10-11T03:14:00.419Z,99.99
2016-10-11T03:15:00.521Z,99.99
2016-10-11T03:16:00.540Z,99.99
2016-10-11T03:17:00.458Z,99.99
2016-10-11T03:18:00.512Z,99.99
2016-10-11T03:19:00.509Z,99.99
2016-10-11T03:20:00.212Z,99.99
2016-10-11T03:21:00.540Z,99.99
2016-10-11T03:22:00.544Z,99.99
2016-10-11T03:23:00.570Z,99.99
2016-10-11T03:24:00.608Z,99.99
2016-10-11T03:25:00.727Z,99.99
2016-10-11T03:26:00.622Z,99.99
2016-10-11T03:27:00.655Z,99.99
2016-10-11T03:28:00.701Z,99.99
2016-10-11T03:29:00.685Z,99.99
2016-10-11T03:30:00.708Z,99.99
2016-10-11T03:31:00.742Z,99.99
2016-10-11T03:32:00.747Z,99.99
2016-10-11T03:33:00.779Z,99.99
2016-10-11T03:34:00.802Z,99.99
2016-10-11T03:35:00.810Z,99.99
2016-10-11T03:36:00.820Z,99.99
2016-10-11T03:37:00.836Z,99.99
2016-10-11T03:38:00.855Z,99.99
2016-10-11T03:39:01.021Z,99.99
2016-10-11T03:40:00.911Z,99.99
2016-10-11T03:41:00.967Z,99.99
2016-10-11T03:42:00.932Z,99.99
2016-10-11T03:43:00.951Z,99.99
2016-10-11T03:44:00.988Z,99.99
2016-10-11T03:45:00.999Z,99.99
2016-10-11T03:46:01.005Z,99.99
2016-10-11T03:47:01.028Z,99.99
2016-10-11T03:48:01.050Z,99.99
2016-10-11T03:49:01.069Z,99.99
2016-10-11T03:50:01.095Z,99.99
2016-10-11T03:51:01.109Z,99.99
2016-10-11T03:52:01.169Z,99.99
2016-10-11T03:53:01.149Z,99.99
2016-10-11T03:54:01.168Z,99.99
2016-10-11T03:55:01.178Z,99.99
2016-10-11T03:56:01.207Z,99.99
2016-10-11T03:57:01.221Z,99.99
2016-10-11T03:58:01.229Z,99.99
2016-10-11T03:59:01.258Z,99.99
2016-10-11T04:00:01.280Z,99.99
2016-10-11T04:01:01.298Z,99.99
2016-10-11T04:02:01.312Z,99.99
2016-10-11T04:03:01.349Z,99.99
2016-10-11T04:04:01.348Z,99.99
2016-10-11T04:05:01.370Z,99.99
2016-10-11T04:06:01.402Z,99.99
2016-10-11T04:07:01.405Z,99.99
2016-10-11T04:08:01.427Z,99.99
2016-10-11T04:09:01.438Z,99.99
2016-10-11T04:10:01.453Z,99.99
2016-10-11T04:11:01.168Z,99.99
2016-10-11T04:12:01.499Z,99.99
2016-10-11T04:13:01.517Z,99.99
2016-10-11T04:14:01.540Z,99.99
2016-10-11T04:15:01.558Z,99.99
2016-10-11T04:16:01.583Z,99.99
2016-10-11T04:17:01.642Z,99.99
2016-10-11T04:18:01.299Z,99.99
2016-10-11T04:19:01.639Z,99.99
2016-10-11T04:20:01.658Z,99.99
2016-10-11T04:21:01.677Z,99.99
2016-10-11T04:22:01.689Z,99.99
2016-10-11T04:23:01.718Z,99.99
2016-10-11T04:24:01.728Z,99.99
2016-10-11T04:25:01.754Z,99.99
2016-10-11T04:26:01.765Z,99.99
2016-10-11T04:27:01.786Z,99.99
2016-10-11T04:28:01.811Z,99.99
2016-10-11T04:29:01.829Z,99.99
2016-10-11T04:30:01.843Z,99.99
2016-10-11T04:31:01.859Z,99.99
2016-10-11T04:32:01.931Z,99.99
2016-10-11T04:33:01.891Z,99.99
2016-10-11T04:34:01.949Z,99.99
2016-10-11T04:35:01.933Z,99.99
2016-10-11T04:36:01.949Z,99.99
2016-10-11T04:37:01.977Z,99.99
2016-10-11T04:38:01.992Z,99.99
2016-10-11T04:39:02.008Z,99.99
2016-10-11T04:40:02.041Z,99.99
2016-10-11T04:41:02.045Z,99.99
2016-10-11T04:42:02.070Z,99.99
2016-10-11T04:43:02.163Z,99.99
2016-10-11T04:44:02.106Z,99.99
2016-10-11T04:45:02.120Z,99.99
2016-10-11T04:46:02.135Z,99.99
2016-10-11T04:47:02.214Z,99.99
2016-10-11T04:48:02.204Z,99.99
2016-10-11T04:49:02.195Z,99.99
2016-10-11T04:50:02.217Z,99.99
2016-10-11T04:51:02.257Z,99.99
2016-10-11T04:52:02.259Z,99.99
2016-10-11T04:53:02.266Z,99.99
2016-10-11T04:54:02.291Z,99.99
2016-10-11T04:55:02.316Z,99.99
2016-10-11T04:56:02.415Z,99.99
2016-10-11T04:57:02.179Z,99.99
2016-10-11T04:58:02.430Z,99.99
2016-10-11T04:59:02.379Z,99.99
2016-10-11T05:00:02.467Z,99.99
2016-10-11T05:01:02.431Z,99.99
2016-10-11T05:02:02.489Z,99.99
2016-10-11T05:03:02.459Z,99.99
2016-10-11T05:04:02.479Z,99.99
2016-10-11T05:05:02.500Z,99.99
2016-10-11T05:06:02.520Z,99.99
2016-10-11T05:07:02.527Z,99.93
2016-10-11T05:08:02.556Z,98.88
2016-10-11T05:09:02.652Z,98.69
2016-10-11T05:10:02.401Z,98.03
2016-10-11T05:11:02.649Z,97.65
2016-10-11T05:12:02.406Z,97.93
2016-10-11T05:13:02.648Z,96.89
2016-10-11T05:14:02.348Z,97.08
2016-10-11T05:15:02.679Z,97.08
2016-10-11T05:16:02.387Z,96.51
2016-10-11T05:17:02.719Z,96.79
2016-10-11T05:18:02.729Z,96.31
2016-10-11T05:19:02.748Z,95.84
2016-10-11T05:20:02.775Z,95.84
2016-10-11T05:21:02.888Z,95.56
2016-10-11T05:22:02.491Z,95.36
2016-10-11T05:23:02.901Z,95.27
2016-10-11T05:24:02.840Z,94.51
2016-10-11T05:25:02.580Z,94.79
2016-10-11T05:26:02.873Z,94.89
2016-10-11T05:27:02.899Z,94.6
2016-10-11T05:28:02.924Z,94.42
2016-10-11T05:29:02.635Z,93.94
2016-10-11T05:30:02.956Z,93.46
2016-10-11T05:31:02.961Z,93.55
2016-10-11T05:32:02.990Z,93.37
2016-10-11T05:33:03.009Z,93.46
2016-10-11T05:34:03.235Z,93.27
2016-10-11T05:35:03.039Z,93.27
2016-10-11T05:36:03.158Z,93.37
2016-10-11T05:37:03.075Z,93.27
2016-10-11T05:38:03.100Z,93.08
2016-10-11T05:39:03.110Z,92.79
2016-10-11T05:40:03.141Z,92.89
2016-10-11T05:41:03.150Z,92.89
2016-10-11T05:42:03.166Z,92.89
2016-10-11T05:43:03.201Z,93.08
2016-10-11T05:44:02.897Z,92.79
2016-10-11T05:45:03.229Z,92.99
2016-10-11T05:46:03.248Z,92.89
2016-10-11T05:47:03.259Z,92.89
2016-10-11T05:48:03.279Z,92.99
2016-10-11T05:49:03.308Z,92.7
2016-10-11T05:50:03.312Z,92.89
2016-10-11T05:51:03.328Z,92.99
2016-10-11T05:52:03.344Z,92.99
2016-10-11T05:53:03.371Z,93.08
2016-10-11T05:54:03.398Z,92.7
2016-10-11T05:55:03.436Z,93.08
2016-10-11T05:56:03.427Z,92.89
2016-10-11T05:57:03.127Z,92.89
2016-10-11T05:58:03.470Z,92.89
2016-10-11T05:59:03.475Z,92.79
2016-10-11T06:00:03.498Z,92.99
2016-10-11T06:01:03.522Z,92.89
2016-10-11T06:02:03.531Z,92.89
2016-10-11T06:03:03.547Z,92.99
2016-10-11T06:04:03.569Z,92.89
2016-10-11T06:05:03.611Z,93.08
2016-10-11T06:06:03.617Z,93.18
2016-10-11T06:07:03.623Z,93.08
2016-10-11T06:08:03.327Z,93.18
2016-10-11T06:09:03.660Z,93.18
2016-10-11T06:10:03.676Z,93.27
2016-10-11T06:11:03.691Z,93.27
2016-10-11T06:12:03.965Z,93.37
2016-10-11T06:13:03.724Z,93.55
2016-10-11T06:14:03.749Z,93.27
2016-10-11T06:15:03.768Z,93.46
2016-10-11T06:16:03.469Z,93.84
2016-10-11T06:17:03.808Z,93.94
2016-10-11T06:18:03.510Z,93.46
2016-10-11T06:19:03.836Z,93.46
2016-10-11T06:20:03.849Z,93.55
2016-10-11T06:21:03.865Z,93.74
2016-10-11T06:22:03.890Z,93.65
2016-10-11T06:23:03.909Z,93.55
2016-10-11T06:24:03.913Z,94.22
2016-10-11T06:25:03.942Z,94.32
2016-10-11T06:26:03.963Z,94.22
2016-10-11T06:27:03.974Z,93.94
2016-10-11T06:28:04.006Z,94.03
2016-10-11T06:29:04.023Z,94.22
2016-10-11T06:30:04.049Z,93.94
2016-10-11T06:31:04.057Z,94.42
2016-10-11T06:32:04.065Z,94.22
2016-10-11T06:33:04.086Z,93.94
2016-10-11T06:34:04.108Z,94.65
2016-10-11T06:35:04.126Z,95.36
2016-10-11T06:36:04.144Z,95.17
2016-10-11T06:37:04.168Z,95.27
2016-10-11T06:38:04.188Z,95.36
2016-10-11T06:39:04.235Z,95.27
2016-10-11T06:40:04.219Z,95.41
2016-10-11T06:41:04.234Z,95.12
2016-10-11T06:42:03.950Z,95.17
2016-10-11T06:43:04.278Z,95.41
2016-10-11T06:44:04.350Z,96.17
2016-10-11T06:45:04.315Z,96.08
2016-10-11T06:46:04.379Z,96.27
2016-10-11T06:47:04.349Z,96.36
2016-10-11T06:48:04.379Z,96.94
2016-10-11T06:49:04.384Z,97.31
2016-10-11T06:50:04.403Z,96.84
2016-10-11T06:51:04.441Z,97.22
2016-10-11T06:52:04.496Z,97.41
2016-10-11T06:53:04.547Z,97.13
2016-10-11T06:54:04.588Z,97.13
2016-10-11T06:55:04.496Z,97.51
2016-10-11T06:56:04.558Z,97.79
2016-10-11T06:57:04.235Z,98.84
2016-10-11T06:58:04.598Z,98.55
2016-10-11T06:59:04.587Z,99.13
2016-10-11T07:00:04.586Z,98.46
2016-10-11T07:01:04.599Z,99.22
2016-10-11T07:02:04.623Z,99.27
2016-10-11T07:03:04.637Z,99.41
2016-10-11T07:04:04.657Z,99.99
2016-10-11T07:05:04.768Z,99.65
2016-10-11T07:06:04.781Z,99.94
2016-10-11T07:07:04.796Z,99.99
2016-10-11T07:08:04.732Z,99.99
2016-10-11T07:09:04.815Z,99.99
2016-10-11T07:10:04.789Z,99.99
2016-10-11T07:11:04.817Z,99.99
2016-10-11T07:12:04.825Z,99.99
2016-10-11T07:13:04.839Z,99.99
2016-10-11T07:14:04.857Z,99.99
2016-10-11T07:15:04.553Z,99.99
2016-10-11T07:16:04.887Z,99.99
2016-10-11T07:17:04.896Z,99.99
2016-10-11T07:18:04.971Z,99.99
2016-10-11T07:19:04.937Z,99.99
2016-10-11T07:20:05.032Z,99.99
2016-10-11T07:21:04.993Z,99.99
2016-10-11T07:22:05.019Z,99.99
2016-10-11T07:23:05.017Z,99.99
2016-10-11T07:24:05.036Z,99.99
2016-10-11T07:25:05.066Z,99.99
2016-10-11T07:26:05.333Z,99.99
2016-10-11T07:27:05.345Z,99.99
2016-10-11T07:28:05.366Z,99.99
2016-10-11T07:29:05.385Z,99.99
2016-10-11T07:30:05.366Z,99.99
2016-10-11T07:31:05.385Z,99.99
2016-10-11T07:32:05.390Z,99.99
2016-10-11T07:33:05.400Z,99.99
2016-10-11T07:34:05.377Z,99.99
2016-10-11T07:35:05.400Z,99.99
2016-10-11T07:36:05.358Z,99.99
2016-10-11T07:37:05.398Z,99.99
2016-10-11T07:38:05.463Z,99.99
2016-10-11T07:39:05.424Z,99.99
2016-10-11T07:40:05.390Z,99.99
2016-10-11T07:41:05.467Z,99.99
2016-10-11T07:42:05.426Z,99.99
2016-10-11T07:43:05.393Z,99.99
2016-10-11T07:44:05.475Z,99.99
2016-10-11T07:45:05.446Z,99.99
2016-10-11T07:46:05.458Z,99.99
2016-10-11T07:47:05.480Z,99.99
2016-10-11T07:48:05.499Z,99.99
2016-10-11T07:49:05.787Z,99.99
2016-10-11T07:50:05.536Z,99.99
2016-10-11T07:51:05.582Z,99.99
2016-10-11T07:52:05.578Z,99.99
2016-10-11T07:53:05.609Z,99.99
2016-10-11T07:54:05.609Z,99.99
2016-10-11T07:55:05.627Z,99.99
2016-10-11T07:56:06.051Z,99.99
2016-10-11T07:57:05.662Z,99.99
2016-10-11T07:58:05.686Z,99.99
2016-10-11T07:59:05.725Z,99.99
2016-10-11T08:00:05.730Z,99.99
2016-10-11T08:01:05.747Z,99.99
2016-10-11T08:02:05.770Z,99.99
2016-10-11T08:03:05.778Z,99.99
2016-10-11T08:04:05.805Z,99.99
2016-10-11T08:05:05.836Z,99.99
2016-10-11T08:06:05.851Z,99.99
2016-10-11T08:07:05.870Z,99.99
2016-10-11T08:08:05.898Z,99.99
2016-10-11T08:09:05.908Z,99.99
2016-10-11T08:10:05.942Z,99.99
2016-10-11T08:11:05.948Z,99.99
2016-10-11T08:12:05.969Z,99.99
2016-10-11T08:13:05.994Z,99.99
2016-10-11T08:14:06.010Z,99.99
2016-10-11T08:15:06.042Z,99.99
2016-10-11T08:16:06.051Z,99.99
2016-10-11T08:17:06.060Z,99.99
2016-10-11T08:18:06.074Z,99.99
2016-10-11T08:19:06.108Z,99.99
2016-10-11T08:20:06.140Z,99.99
2016-10-11T08:21:05.828Z,99.99
2016-10-11T08:22:06.178Z,99.99
2016-10-11T08:23:06.225Z,99.99
2016-10-11T08:24:05.882Z,99.99
2016-10-11T08:25:06.214Z,99.99
2016-10-11T08:26:05.939Z,99.99
2016-10-11T08:27:06.263Z,99.99
2016-10-11T08:28:06.334Z,99.99
2016-10-11T08:29:06.295Z,99.99
2016-10-11T08:30:06.339Z,99.99
2016-10-11T08:31:06.347Z,99.99
2016-10-11T08:32:06.369Z,99.99
2016-10-11T08:33:06.441Z,99.99
2016-10-11T08:34:06.392Z,99.99
2016-10-11T08:35:06.430Z,99.99
2016-10-11T08:36:06.467Z,99.99
2016-10-11T08:37:06.459Z,99.99
2016-10-11T08:38:06.488Z,99.99
2016-10-11T08:39:06.705Z,99.99
2016-10-11T08:40:06.529Z,99.99
2016-10-11T08:41:06.556Z,99.99
2016-10-11T08:42:06.572Z,99.99
2016-10-11T08:43:06.588Z,99.99
2016-10-11T08:44:06.595Z,99.99
2016-10-11T08:45:06.619Z,99.99
2016-10-11T08:46:06.635Z,99.99
2016-10-11T08:47:06.669Z,99.99
2016-10-11T08:48:06.788Z,99.99
2016-10-11T08:49:06.710Z,99.99
2016-10-11T08:50:06.744Z,99.99
2016-10-11T08:51:06.739Z,99.99
2016-10-11T08:52:06.766Z,99.99
2016-10-11T08:53:06.827Z,99.99
2016-10-11T08:54:06.795Z,99.99
2016-10-11T08:55:06.823Z,99.99
2016-10-11T08:56:06.837Z,99.99
2016-10-11T08:57:06.863Z,99.99
2016-10-11T08:58:06.885Z,99.99
2016-10-11T08:59:06.904Z,99.99
2016-10-11T09:00:07.016Z,99.99
2016-10-11T09:01:07.002Z,99.99
2016-10-11T09:02:06.968Z,99.99
2016-10-11T09:03:07.031Z,99.99
2016-10-11T09:04:06.699Z,99.99
2016-10-11T09:05:07.026Z,99.99
2016-10-11T09:06:07.048Z,99.99
2016-10-11T09:07:07.055Z,99.99
2016-10-11T09:08:07.099Z,99.99
2016-10-11T09:09:07.096Z,99.99
2016-10-11T09:10:07.135Z,99.99
2016-10-11T09:11:07.156Z,99.99
2016-10-11T09:12:07.168Z,99.99
2016-10-11T09:13:07.299Z,99.99
2016-10-11T09:14:07.196Z,99.99
2016-10-11T09:15:07.269Z,99.99
2016-10-11T09:16:07.236Z,99.99
2016-10-11T09:17:07.253Z,99.99
2016-10-11T09:18:07.276Z,99.99
2016-10-11T09:19:07.310Z,99.99
2016-10-11T09:20:07.320Z,99.99
2016-10-11T09:21:07.341Z,99.99
2016-10-11T09:22:07.359Z,99.99
2016-10-11T09:23:07.378Z,99.99
2016-10-11T09:24:07.441Z,99.99
2016-10-11T09:25:07.412Z,99.99
2016-10-11T09:26:07.458Z,99.99
2016-10-11T09:27:07.477Z,99.99
2016-10-11T09:28:07.167Z,99.99
2016-10-11T09:29:07.496Z,99.99
2016-10-11T09:30:07.519Z,99.99
2016-10-11T09:31:07.539Z,99.99
2016-10-11T09:32:07.559Z,99.99
2016-10-11T09:33:07.577Z,99.99
2016-10-11T09:34:07.589Z,99.99
2016-10-11T09:35:07.626Z,99.99
2016-10-11T09:36:07.643Z,99.99
2016-10-11T09:37:07.652Z,99.99
2016-10-11T09:38:07.673Z,99.99
2016-10-11T09:39:07.706Z,99.99
2016-10-11T09:40:07.722Z,99.99
2016-10-11T09:41:07.740Z,99.99
2016-10-11T09:42:07.749Z,99.99
2016-10-11T09:43:07.778Z,99.99
2016-10-11T09:44:07.483Z,99.99
2016-10-11T09:45:07.824Z,99.99
2016-10-11T09:46:07.841Z,99.99
2016-10-11T09:47:07.863Z,99.99
2016-10-11T09:48:07.879Z,99.99
2016-10-11T09:49:07.891Z,99.99
2016-10-11T09:50:07.919Z,99.99
2016-10-11T09:51:07.945Z,99.99
2016-10-11T09:52:07.980Z,99.99
2016-10-11T09:53:07.992Z,99.99
2016-10-11T09:54:08.001Z,99.99
2016-10-11T09:55:08.012Z,99.99
2016-10-11T09:56:08.030Z,99.99
2016-10-11T09:57:08.059Z,99.99
2016-10-11T09:58:08.081Z,99.99
2016-10-11T09:59:08.391Z,99.99
2016-10-11T10:00:08.108Z,99.99
2016-10-11T10:01:08.216Z,99.99
2016-10-11T10:02:08.164Z,99.99
2016-10-11T10:03:08.181Z,99.99
2016-10-11T10:04:08.233Z,99.99
2016-10-11T10:05:08.207Z,99.99
2016-10-11T10:06:08.288Z,99.99
2016-10-11T10:07:08.246Z,99.99
2016-10-11T10:08:08.272Z,99.99
2016-10-11T10:09:08.297Z,99.99
2016-10-11T10:10:08.320Z,99.99
2016-10-11T10:11:08.347Z,99.99
2016-10-11T10:12:08.355Z,99.99
2016-10-11T10:13:08.368Z,99.99
2016-10-11T10:14:08.392Z,99.99
2016-10-11T10:15:08.419Z,99.99
2016-10-11T10:16:08.430Z,99.99
2016-10-11T10:17:08.552Z,99.99
2016-10-11T10:18:08.477Z,99.99
2016-10-11T10:19:08.509Z,99.99
2016-10-11T10:20:08.510Z,99.99
2016-10-11T10:21:08.528Z,99.99
2016-10-11T10:22:08.544Z,99.99
2016-10-11T10:23:08.575Z,99.99
2016-10-11T10:24:08.590Z,99.99
2016-10-11T10:25:08.619Z,99.99
2016-10-11T10:26:08.627Z,99.99
2016-10-11T10:27:08.763Z,99.99
2016-10-11T10:28:08.371Z,99.99
2016-10-11T10:29:08.683Z,99.99
2016-10-11T10:30:08.752Z,99.99
2016-10-11T10:31:08.741Z,99.99
2016-10-11T10:32:08.746Z,99.99
2016-10-11T10:33:08.761Z,99.99
2016-10-11T10:34:08.819Z,99.99
2016-10-11T10:35:08.800Z,99.99
2016-10-11T10:36:08.835Z,99.99
2016-10-11T10:37:08.848Z,99.99
2016-10-11T10:38:08.932Z,99.99
2016-10-11T10:39:08.907Z,99.99
2016-10-11T10:40:08.590Z,99.99
2016-10-11T10:41:08.940Z,99.99
2016-10-11T10:42:09.018Z,99.99
2016-10-11T10:43:08.969Z,99.99
2016-10-11T10:44:08.988Z,99.99
2016-10-11T10:45:09.245Z,99.99
2016-10-11T10:46:09.341Z,99.99
2016-10-11T10:47:09.486Z,99.99
2016-10-11T10:48:09.263Z,99.99
2016-10-11T10:49:09.482Z,99.99
2016-10-11T10:50:09.098Z,99.99
2016-10-11T10:51:09.477Z,99.99
2016-10-11T10:52:09.356Z,99.99
2016-10-11T10:53:09.456Z,99.99
2016-10-11T10:54:09.336Z,99.99
2016-10-11T10:55:09.207Z,99.99
2016-10-11T10:56:09.365Z,99.99
2016-10-11T10:57:09.690Z,99.99
2016-10-11T10:58:09.357Z,99.99
2016-10-11T10:59:09.565Z,99.99
2016-10-11T11:00:09.356Z,99.99
2016-10-11T11:01:09.471Z,99.99
2016-10-11T11:02:09.332Z,99.99
2016-10-11T11:03:09.470Z,99.99
2016-10-11T11:04:09.531Z,99.99
2016-10-11T11:05:09.079Z,99.99
2016-10-11T11:06:09.469Z,99.99
2016-10-11T11:07:09.441Z,99.99
2016-10-11T11:08:09.671Z,99.99
2016-10-11T11:09:09.470Z,99.99
2016-10-11T11:10:09.643Z,99.99
2016-10-11T11:11:09.521Z,99.99
2016-10-11T11:12:09.369Z,99.99
2016-10-11T11:13:09.550Z,99.99
2016-10-11T11:14:09.722Z,99.99
2016-10-11T11:15:10.196Z,99.99
2016-10-11T11:16:09.655Z,99.99
2016-10-11T11:17:09.632Z,99.99
2016-10-11T11:18:09.655Z,99.99
2016-10-11T11:19:10.292Z,99.99
2016-10-11T11:20:09.692Z,99.99
2016-10-11T11:21:09.724Z,99.99
2016-10-11T11:22:09.732Z,99.99
2016-10-11T11:23:09.752Z,99.99
2016-10-11T11:24:09.780Z,99.99
2016-10-11T11:25:09.797Z,99.99
2016-10-11T11:26:09.814Z,99.99
2016-10-11T11:27:09.831Z,99.99
2016-10-11T11:28:09.859Z,99.99
2016-10-11T11:29:09.873Z,99.99
2016-10-11T11:30:09.900Z,99.99
2016-10-11T11:31:09.931Z,99.99
2016-10-11T11:32:10.502Z,99.99
2016-10-11T11:33:09.955Z,99.99
2016-10-11T11:34:09.971Z,99.99
2016-10-11T11:35:09.990Z,99.99
2016-10-11T11:36:10.007Z,99.99
2016-10-11T11:37:10.039Z,99.99
2016-10-11T11:38:10.048Z,99.99
2016-10-11T11:39:10.081Z,99.99
2016-10-11T11:40:10.089Z,99.99
2016-10-11T11:41:10.119Z,99.99
2016-10-11T11:42:10.142Z,99.99
2016-10-11T11:43:10.158Z,99.99
2016-10-11T11:44:10.203Z,99.99
2016-10-11T11:45:10.207Z,99.99
2016-10-11T11:46:10.236Z,99.99
2016-10-11T11:47:10.240Z,99.99
2016-10-11T11:48:10.259Z,99.99
2016-10-11T11:49:10.331Z,99.99
2016-10-11T11:50:10.298Z,99.99
2016-10-11T11:51:10.321Z,99.99
2016-10-11T11:52:10.347Z,99.99
2016-10-11T11:53:10.368Z,99.99
2016-10-11T11:54:10.380Z,99.99
2016-10-11T11:55:10.404Z,99.99
2016-10-11T11:56:10.435Z,99.99
2016-10-11T11:57:10.542Z,99.99
2016-10-11T11:58:10.462Z,99.99
2016-10-11T11:59:10.488Z,99.99
2016-10-11T12:00:10.507Z,99.99
2016-10-11T12:01:10.529Z,99.99
2016-10-11T12:02:10.550Z,99.99
2016-10-11T12:03:10.565Z,99.99
2016-10-11T12:04:10.996Z,99.99
2016-10-11T12:05:10.612Z,99.99
2016-10-11T12:06:10.643Z,99.99
2016-10-11T12:07:10.750Z,99.99
2016-10-11T12:08:10.681Z,99.99
2016-10-11T12:09:10.689Z,99.99
2016-10-11T12:10:10.407Z,99.99
2016-10-11T12:11:10.752Z,99.99
2016-10-11T12:12:10.759Z,99.99
2016-10-11T12:13:10.783Z,99.99
2016-10-11T12:14:10.851Z,99.99
2016-10-11T12:15:10.819Z,99.99
2016-10-11T12:16:10.851Z,99.99
2016-10-11T12:17:10.859Z,99.99
2016-10-11T12:18:10.929Z,99.99
2016-10-11T12:19:11.048Z,99.99
2016-10-11T12:20:10.978Z,99.99
2016-10-11T12:21:10.960Z,99.99
2016-10-11T12:22:11.072Z,99.99
2016-10-11T12:23:10.993Z,99.99
2016-10-11T12:24:11.011Z,99.99
2016-10-11T12:25:11.028Z,99.99
2016-10-11T12:26:11.052Z,99.99
2016-10-11T12:27:11.129Z,99.99
2016-10-11T12:28:11.086Z,99.99
2016-10-11T12:29:11.118Z,99.99
2016-10-11T12:30:11.143Z,99.99
2016-10-11T12:31:11.169Z,99.99
2016-10-11T12:32:11.178Z,99.99
2016-10-11T12:33:11.198Z,99.99
2016-10-11T12:34:11.212Z,99.99
2016-10-11T12:35:11.261Z,99.99
2016-10-11T12:36:11.273Z,99.99
2016-10-11T12:37:11.283Z,99.99
2016-10-11T12:38:11.297Z,99.99
2016-10-11T12:39:11.340Z,99.99
2016-10-11T12:40:11.336Z,99.99
2016-10-11T12:41:11.358Z,99.99
2016-10-11T12:42:11.401Z,99.99
2016-10-11T12:43:11.399Z,99.99
2016-10-11T12:44:11.421Z,99.99
2016-10-11T12:45:11.438Z,99.99
2016-10-11T12:46:11.567Z,99.99
2016-10-11T12:47:11.482Z,99.99
2016-10-11T12:48:11.546Z,99.99
2016-10-11T12:49:11.531Z,99.99
2016-10-11T12:50:11.560Z,99.99
2016-10-11T12:51:11.567Z,99.99
2016-10-11T12:52:11.578Z,99.99
2016-10-11T12:53:11.595Z,99.99